sensor_id;sensor_type;location;lat;lon;timestamp;P1;durP1;ratioP1;P2;durP2;ratioP2
35897;SDS011;21997;47.118;15.346;2023-03-01T00:01:13;17.20;;;10.63;;
35897;SDS011;21997;47.118;15.346;2023-03-01T00:03:41;16.53;;;9.90;;
35897;SDS011;21997;47.118;15.346;2023-03-01T00:06:07;16.67;;;10.20;;
35897;SDS011;21997;47.118;15.346;2023-03-01T00:08:33;14.13;;;9.77;;
35897;SDS011;21997;47.118;15.346;2023-03-01T00:11:06;14.37;;;9.90;;
35897;SDS011;21997;47.118;15.346;2023-03-01T00:13:42;16.23;;;9.63;;
35897;SDS011;21997;47.118;15.346;2023-03-01T00:16:10;18.53;;;10.27;;
35897;SDS011;21997;47.118;15.346;2023-03-01T00:18:40;17.13;;;10.80;;
35897;SDS011;21997;47.118;15.346;2023-03-01T00:21:05;14.30;;;10.40;;
35897;SDS011;21997;47.118;15.346;2023-03-01T00:23:33;17.33;;;11.07;;
35897;SDS011;21997;47.118;15.346;2023-03-01T00:25:58;14.90;;;10.80;;
35897;SDS011;21997;47.118;15.346;2023-03-01T00:28:24;16.23;;;9.63;;
35897;SDS011;21997;47.118;15.346;2023-03-01T00:30:49;15.47;;;9.53;;
35897;SDS011;21997;47.118;15.346;2023-03-01T00:33:14;14.37;;;9.90;;
35897;SDS011;21997;47.118;15.346;2023-03-01T00:35:40;13.03;;;9.53;;
35897;SDS011;21997;47.118;15.346;2023-03-01T00:38:05;14.77;;;10.83;;
35897;SDS011;21997;47.118;15.346;2023-03-01T00:40:31;14.43;;;9.10;;
35897;SDS011;21997;47.118;15.346;2023-03-01T00:42:58;17.00;;;9.60;;
35897;SDS011;21997;47.118;15.346;2023-03-01T00:45:24;13.87;;;9.47;;
35897;SDS011;21997;47.118;15.346;2023-03-01T00:47:50;13.83;;;9.73;;
35897;SDS011;21997;47.118;15.346;2023-03-01T00:50:16;12.63;;;9.80;;
35897;SDS011;21997;47.118;15.346;2023-03-01T00:52:41;13.60;;;10.03;;
35897;SDS011;21997;47.118;15.346;2023-03-01T00:55:07;15.70;;;10.20;;
35897;SDS011;21997;47.118;15.346;2023-03-01T00:57:32;15.13;;;9.23;;
35897;SDS011;21997;47.118;15.346;2023-03-01T00:59:58;13.33;;;10.03;;
35897;SDS011;21997;47.118;15.346;2023-03-01T01:02:23;13.47;;;9.47;;
35897;SDS011;21997;47.118;15.346;2023-03-01T01:04:49;16.73;;;9.60;;
35897;SDS011;21997;47.118;15.346;2023-03-01T01:07:14;13.60;;;9.07;;
35897;SDS011;21997;47.118;15.346;2023-03-01T01:09:40;13.67;;;9.90;;
35897;SDS011;21997;47.118;15.346;2023-03-01T01:12:06;13.70;;;9.70;;
35897;SDS011;21997;47.118;15.346;2023-03-01T01:14:32;13.17;;;9.80;;
35897;SDS011;21997;47.118;15.346;2023-03-01T01:16:57;14.73;;;9.80;;
35897;SDS011;21997;47.118;15.346;2023-03-01T01:19:23;15.83;;;10.07;;
35897;SDS011;21997;47.118;15.346;2023-03-01T01:21:49;17.40;;;11.50;;
35897;SDS011;21997;47.118;15.346;2023-03-01T01:24:15;13.47;;;10.10;;
35897;SDS011;21997;47.118;15.346;2023-03-01T01:26:40;14.27;;;10.30;;
35897;SDS011;21997;47.118;15.346;2023-03-01T01:29:06;17.40;;;12.10;;
35897;SDS011;21997;47.118;15.346;2023-03-01T01:31:32;21.60;;;12.13;;
35897;SDS011;21997;47.118;15.346;2023-03-01T01:33:58;17.07;;;11.03;;
35897;SDS011;21997;47.118;15.346;2023-03-01T01:36:24;17.17;;;11.70;;
35897;SDS011;21997;47.118;15.346;2023-03-01T01:38:50;18.37;;;12.07;;
35897;SDS011;21997;47.118;15.346;2023-03-01T01:41:16;16.20;;;10.97;;
35897;SDS011;21997;47.118;15.346;2023-03-01T01:43:46;17.27;;;10.80;;
35897;SDS011;21997;47.118;15.346;2023-03-01T01:46:28;19.43;;;12.17;;
35897;SDS011;21997;47.118;15.346;2023-03-01T01:48:59;16.60;;;10.97;;
35897;SDS011;21997;47.118;15.346;2023-03-01T01:51:28;18.03;;;11.93;;
35897;SDS011;21997;47.118;15.346;2023-03-01T01:54:03;18.90;;;12.00;;
35897;SDS011;21997;47.118;15.346;2023-03-01T01:56:34;17.00;;;12.20;;
35897;SDS011;21997;47.118;15.346;2023-03-01T01:59:01;19.00;;;13.23;;
35897;SDS011;21997;47.118;15.346;2023-03-01T02:01:27;18.20;;;12.90;;
35897;SDS011;21997;47.118;15.346;2023-03-01T02:03:52;17.43;;;12.50;;
35897;SDS011;21997;47.118;15.346;2023-03-01T02:06:28;18.73;;;11.97;;
35897;SDS011;21997;47.118;15.346;2023-03-01T02:09:01;18.03;;;12.17;;
35897;SDS011;21997;47.118;15.346;2023-03-01T02:11:31;17.50;;;12.70;;
35897;SDS011;21997;47.118;15.346;2023-03-01T02:13:56;18.43;;;11.67;;
35897;SDS011;21997;47.118;15.346;2023-03-01T02:16:22;16.70;;;11.57;;
35897;SDS011;21997;47.118;15.346;2023-03-01T02:18:47;16.63;;;11.33;;
35897;SDS011;21997;47.118;15.346;2023-03-01T02:21:17;20.63;;;11.77;;
35897;SDS011;21997;47.118;15.346;2023-03-01T02:23:49;17.63;;;12.20;;
35897;SDS011;21997;47.118;15.346;2023-03-01T02:26:19;18.40;;;12.37;;
35897;SDS011;21997;47.118;15.346;2023-03-01T02:28:49;18.33;;;12.43;;
35897;SDS011;21997;47.118;15.346;2023-03-01T02:31:16;21.20;;;12.07;;
35897;SDS011;21997;47.118;15.346;2023-03-01T02:34:02;14.73;;;11.03;;
35897;SDS011;21997;47.118;15.346;2023-03-01T02:36:34;22.37;;;11.37;;
35897;SDS011;21997;47.118;15.346;2023-03-01T02:39:02;16.40;;;11.83;;
35897;SDS011;21997;47.118;15.346;2023-03-01T02:41:31;18.20;;;10.93;;
35897;SDS011;21997;47.118;15.346;2023-03-01T02:44:00;14.30;;;10.73;;
35897;SDS011;21997;47.118;15.346;2023-03-01T02:46:26;18.90;;;11.10;;
35897;SDS011;21997;47.118;15.346;2023-03-01T02:48:52;15.27;;;10.73;;
35897;SDS011;21997;47.118;15.346;2023-03-01T02:56:32;17.27;;;11.03;;
35897;SDS011;21997;47.118;15.346;2023-03-01T02:58:57;16.23;;;11.20;;
35897;SDS011;21997;47.118;15.346;2023-03-01T03:01:25;18.87;;;11.33;;
35897;SDS011;21997;47.118;15.346;2023-03-01T03:04:01;15.57;;;10.87;;
35897;SDS011;21997;47.118;15.346;2023-03-01T03:06:26;16.40;;;11.13;;
35897;SDS011;21997;47.118;15.346;2023-03-01T03:08:52;15.90;;;10.67;;
35897;SDS011;21997;47.118;15.346;2023-03-01T03:11:17;20.67;;;10.67;;
35897;SDS011;21997;47.118;15.346;2023-03-01T03:13:43;19.43;;;12.17;;
35897;SDS011;21997;47.118;15.346;2023-03-01T03:16:12;16.27;;;10.77;;
35897;SDS011;21997;47.118;15.346;2023-03-01T03:18:38;15.83;;;11.30;;
35897;SDS011;21997;47.118;15.346;2023-03-01T03:21:06;14.83;;;10.07;;
35897;SDS011;21997;47.118;15.346;2023-03-01T03:23:35;16.50;;;10.90;;
35897;SDS011;21997;47.118;15.346;2023-03-01T03:26:01;14.50;;;10.83;;
35897;SDS011;21997;47.118;15.346;2023-03-01T03:28:29;15.13;;;10.30;;
35897;SDS011;21997;47.118;15.346;2023-03-01T03:30:55;15.27;;;10.70;;
35897;SDS011;21997;47.118;15.346;2023-03-01T03:33:21;18.97;;;11.47;;
35897;SDS011;21997;47.118;15.346;2023-03-01T03:35:47;17.23;;;11.17;;
35897;SDS011;21997;47.118;15.346;2023-03-01T03:38:14;17.33;;;10.90;;
35897;SDS011;21997;47.118;15.346;2023-03-01T03:40:45;13.63;;;10.60;;
35897;SDS011;21997;47.118;15.346;2023-03-01T03:43:27;18.80;;;11.53;;
35897;SDS011;21997;47.118;15.346;2023-03-01T03:45:53;15.27;;;11.40;;
35897;SDS011;21997;47.118;15.346;2023-03-01T03:48:19;18.77;;;11.37;;
35897;SDS011;21997;47.118;15.346;2023-03-01T03:50:51;20.40;;;12.10;;
35897;SDS011;21997;47.118;15.346;2023-03-01T03:53:18;15.47;;;10.90;;
35897;SDS011;21997;47.118;15.346;2023-03-01T03:55:44;16.03;;;11.23;;
35897;SDS011;21997;47.118;15.346;2023-03-01T03:58:10;18.20;;;11.70;;
35897;SDS011;21997;47.118;15.346;2023-03-01T04:00:39;15.27;;;10.53;;
35897;SDS011;21997;47.118;15.346;2023-03-01T04:03:06;16.30;;;11.47;;
35897;SDS011;21997;47.118;15.346;2023-03-01T04:05:32;18.07;;;11.70;;
35897;SDS011;21997;47.118;15.346;2023-03-01T04:07:58;13.50;;;10.40;;
35897;SDS011;21997;47.118;15.346;2023-03-01T04:10:30;18.50;;;10.93;;
35897;SDS011;21997;47.118;15.346;2023-03-01T04:13:01;18.80;;;12.00;;
35897;SDS011;21997;47.118;15.346;2023-03-01T04:15:27;15.03;;;11.07;;
35897;SDS011;21997;47.118;15.346;2023-03-01T04:17:53;15.37;;;10.70;;
35897;SDS011;21997;47.118;15.346;2023-03-01T04:20:25;17.97;;;12.30;;
35897;SDS011;21997;47.118;15.346;2023-03-01T04:23:28;21.37;;;13.27;;
35897;SDS011;21997;47.118;15.346;2023-03-01T04:25:50;21.23;;;13.20;;
35897;SDS011;21997;47.118;15.346;2023-03-01T04:28:26;21.60;;;14.03;;
35897;SDS011;21997;47.118;15.346;2023-03-01T04:30:53;18.87;;;12.63;;
35897;SDS011;21997;47.118;15.346;2023-03-01T04:33:20;23.53;;;15.33;;
35897;SDS011;21997;47.118;15.346;2023-03-01T04:35:46;22.40;;;13.67;;
35897;SDS011;21997;47.118;15.346;2023-03-01T04:38:14;22.83;;;13.63;;
35897;SDS011;21997;47.118;15.346;2023-03-01T04:40:40;21.23;;;14.33;;
35897;SDS011;21997;47.118;15.346;2023-03-01T04:43:08;18.83;;;13.30;;
35897;SDS011;21997;47.118;15.346;2023-03-01T04:45:33;17.70;;;13.03;;
35897;SDS011;21997;47.118;15.346;2023-03-01T04:47:59;19.97;;;13.37;;
35897;SDS011;21997;47.118;15.346;2023-03-01T04:50:25;23.53;;;13.47;;
35897;SDS011;21997;47.118;15.346;2023-03-01T04:52:51;17.23;;;12.53;;
35897;SDS011;21997;47.118;15.346;2023-03-01T04:55:16;19.00;;;12.77;;
35897;SDS011;21997;47.118;15.346;2023-03-01T04:57:42;19.00;;;12.97;;
35897;SDS011;21997;47.118;15.346;2023-03-01T05:00:09;18.63;;;12.13;;
35897;SDS011;21997;47.118;15.346;2023-03-01T05:02:45;20.53;;;12.17;;
35897;SDS011;21997;47.118;15.346;2023-03-01T05:07:46;16.77;;;12.43;;
35897;SDS011;21997;47.118;15.346;2023-03-01T05:10:12;17.67;;;11.93;;
35897;SDS011;21997;47.118;15.346;2023-03-01T05:12:37;18.63;;;12.67;;
35897;SDS011;21997;47.118;15.346;2023-03-01T05:15:03;20.23;;;13.50;;
35897;SDS011;21997;47.118;15.346;2023-03-01T05:17:32;21.23;;;14.27;;
35897;SDS011;21997;47.118;15.346;2023-03-01T05:19:58;23.20;;;15.33;;
35897;SDS011;21997;47.118;15.346;2023-03-01T05:22:25;22.63;;;15.07;;
35897;SDS011;21997;47.118;15.346;2023-03-01T05:24:51;19.80;;;14.10;;
35897;SDS011;21997;47.118;15.346;2023-03-01T05:27:17;21.33;;;13.70;;
35897;SDS011;21997;47.118;15.346;2023-03-01T05:29:42;20.10;;;13.17;;
35897;SDS011;21997;47.118;15.346;2023-03-01T05:32:08;19.10;;;12.13;;
35897;SDS011;21997;47.118;15.346;2023-03-01T05:34:34;19.53;;;13.77;;
35897;SDS011;21997;47.118;15.346;2023-03-01T05:37:00;19.77;;;13.87;;
35897;SDS011;21997;47.118;15.346;2023-03-01T05:39:28;18.60;;;12.63;;
35897;SDS011;21997;47.118;15.346;2023-03-01T05:41:54;19.93;;;12.73;;
35897;SDS011;21997;47.118;15.346;2023-03-01T05:44:24;18.10;;;12.20;;
35897;SDS011;21997;47.118;15.346;2023-03-01T05:46:50;19.47;;;12.90;;
35897;SDS011;21997;47.118;15.346;2023-03-01T05:49:16;21.27;;;13.70;;
35897;SDS011;21997;47.118;15.346;2023-03-01T05:51:42;17.50;;;13.30;;
35897;SDS011;21997;47.118;15.346;2023-03-01T05:54:08;16.23;;;11.90;;
35897;SDS011;21997;47.118;15.346;2023-03-01T05:56:35;17.97;;;12.10;;
35897;SDS011;21997;47.118;15.346;2023-03-01T05:59:01;28.57;;;21.07;;
35897;SDS011;21997;47.118;15.346;2023-03-01T06:01:27;21.47;;;14.77;;
35897;SDS011;21997;47.118;15.346;2023-03-01T06:03:53;20.17;;;13.93;;
35897;SDS011;21997;47.118;15.346;2023-03-01T06:06:19;18.40;;;13.50;;
35897;SDS011;21997;47.118;15.346;2023-03-01T06:08:44;20.73;;;13.23;;
35897;SDS011;21997;47.118;15.346;2023-03-01T06:11:10;17.83;;;13.00;;
35897;SDS011;21997;47.118;15.346;2023-03-01T06:13:35;21.50;;;13.27;;
35897;SDS011;21997;47.118;15.346;2023-03-01T06:16:03;21.70;;;13.50;;
35897;SDS011;21997;47.118;15.346;2023-03-01T06:18:30;21.83;;;13.63;;
35897;SDS011;21997;47.118;15.346;2023-03-01T06:20:56;23.37;;;13.43;;
35897;SDS011;21997;47.118;15.346;2023-03-01T06:23:22;17.90;;;12.20;;
35897;SDS011;21997;47.118;15.346;2023-03-01T06:25:48;20.20;;;13.30;;
35897;SDS011;21997;47.118;15.346;2023-03-01T06:28:13;20.50;;;13.30;;
35897;SDS011;21997;47.118;15.346;2023-03-01T06:30:38;25.53;;;15.30;;
35897;SDS011;21997;47.118;15.346;2023-03-01T06:33:04;23.10;;;16.47;;
35897;SDS011;21997;47.118;15.346;2023-03-01T06:35:29;21.80;;;14.93;;
35897;SDS011;21997;47.118;15.346;2023-03-01T06:37:55;24.37;;;15.00;;
35897;SDS011;21997;47.118;15.346;2023-03-01T06:40:20;22.30;;;14.20;;
35897;SDS011;21997;47.118;15.346;2023-03-01T06:42:49;25.93;;;15.97;;
35897;SDS011;21997;47.118;15.346;2023-03-01T06:45:16;22.87;;;14.97;;
35897;SDS011;21997;47.118;15.346;2023-03-01T06:47:42;23.00;;;14.27;;
35897;SDS011;21997;47.118;15.346;2023-03-01T06:50:08;21.23;;;15.00;;
35897;SDS011;21997;47.118;15.346;2023-03-01T06:52:33;19.17;;;13.20;;
35897;SDS011;21997;47.118;15.346;2023-03-01T06:54:59;26.70;;;13.23;;
35897;SDS011;21997;47.118;15.346;2023-03-01T06:57:25;19.37;;;13.77;;
35897;SDS011;21997;47.118;15.346;2023-03-01T06:59:50;19.00;;;12.60;;
35897;SDS011;21997;47.118;15.346;2023-03-01T07:02:16;21.50;;;13.47;;
35897;SDS011;21997;47.118;15.346;2023-03-01T07:04:42;21.10;;;14.27;;
35897;SDS011;21997;47.118;15.346;2023-03-01T07:07:07;22.53;;;14.80;;
35897;SDS011;21997;47.118;15.346;2023-03-01T07:09:33;22.27;;;14.57;;
35897;SDS011;21997;47.118;15.346;2023-03-01T07:11:58;21.73;;;15.07;;
35897;SDS011;21997;47.118;15.346;2023-03-01T07:14:24;20.70;;;13.87;;
35897;SDS011;21997;47.118;15.346;2023-03-01T07:16:51;21.37;;;14.33;;
35897;SDS011;21997;47.118;15.346;2023-03-01T07:19:16;22.13;;;14.07;;
35897;SDS011;21997;47.118;15.346;2023-03-01T07:21:42;20.80;;;14.30;;
35897;SDS011;21997;47.118;15.346;2023-03-01T07:24:09;20.80;;;13.00;;
35897;SDS011;21997;47.118;15.346;2023-03-01T07:26:34;19.63;;;14.00;;
35897;SDS011;21997;47.118;15.346;2023-03-01T07:29:00;21.43;;;15.40;;
35897;SDS011;21997;47.118;15.346;2023-03-01T07:31:27;24.37;;;16.13;;
35897;SDS011;21997;47.118;15.346;2023-03-01T07:33:55;23.07;;;16.07;;
35897;SDS011;21997;47.118;15.346;2023-03-01T07:36:20;20.30;;;15.47;;
35897;SDS011;21997;47.118;15.346;2023-03-01T07:38:46;51.30;;;19.03;;
35897;SDS011;21997;47.118;15.346;2023-03-01T07:41:11;31.93;;;16.73;;
35897;SDS011;21997;47.118;15.346;2023-03-01T07:43:37;21.90;;;14.93;;
35897;SDS011;21997;47.118;15.346;2023-03-01T07:46:03;22.90;;;14.57;;
35897;SDS011;21997;47.118;15.346;2023-03-01T07:48:29;20.40;;;15.07;;
35897;SDS011;21997;47.118;15.346;2023-03-01T07:50:57;25.33;;;15.47;;
35897;SDS011;21997;47.118;15.346;2023-03-01T07:53:24;27.27;;;14.77;;
35897;SDS011;21997;47.118;15.346;2023-03-01T07:55:49;21.23;;;14.80;;
35897;SDS011;21997;47.118;15.346;2023-03-01T07:58:14;26.40;;;16.20;;
35897;SDS011;21997;47.118;15.346;2023-03-01T08:00:40;22.13;;;15.10;;
35897;SDS011;21997;47.118;15.346;2023-03-01T08:03:05;21.83;;;14.60;;
35897;SDS011;21997;47.118;15.346;2023-03-01T08:05:31;21.33;;;14.30;;
35897;SDS011;21997;47.118;15.346;2023-03-01T08:07:57;22.07;;;14.43;;
35897;SDS011;21997;47.118;15.346;2023-03-01T08:10:22;25.73;;;16.07;;
35897;SDS011;21997;47.118;15.346;2023-03-01T08:12:50;23.63;;;15.23;;
35897;SDS011;21997;47.118;15.346;2023-03-01T08:15:16;20.63;;;15.10;;
35897;SDS011;21997;47.118;15.346;2023-03-01T08:17:43;22.37;;;15.27;;
35897;SDS011;21997;47.118;15.346;2023-03-01T08:20:09;25.63;;;15.23;;
35897;SDS011;21997;47.118;15.346;2023-03-01T08:22:37;23.37;;;15.07;;
35897;SDS011;21997;47.118;15.346;2023-03-01T08:25:02;23.67;;;14.97;;
35897;SDS011;21997;47.118;15.346;2023-03-01T08:27:28;19.67;;;12.93;;
35897;SDS011;21997;47.118;15.346;2023-03-01T08:29:53;19.50;;;13.57;;
35897;SDS011;21997;47.118;15.346;2023-03-01T08:32:19;18.07;;;13.17;;
35897;SDS011;21997;47.118;15.346;2023-03-01T08:34:46;19.07;;;12.50;;
35897;SDS011;21997;47.118;15.346;2023-03-01T08:37:12;15.57;;;11.80;;
35897;SDS011;21997;47.118;15.346;2023-03-01T08:39:39;17.57;;;11.60;;
35897;SDS011;21997;47.118;15.346;2023-03-01T08:42:04;14.57;;;10.23;;
35897;SDS011;21997;47.118;15.346;2023-03-01T08:44:30;13.47;;;10.50;;
35897;SDS011;21997;47.118;15.346;2023-03-01T08:46:55;16.60;;;10.97;;
35897;SDS011;21997;47.118;15.346;2023-03-01T08:49:22;15.60;;;9.90;;
35897;SDS011;21997;47.118;15.346;2023-03-01T08:51:48;16.00;;;10.23;;
35897;SDS011;21997;47.118;15.346;2023-03-01T08:54:15;15.47;;;10.10;;
35897;SDS011;21997;47.118;15.346;2023-03-01T08:56:41;13.90;;;10.23;;
35897;SDS011;21997;47.118;15.346;2023-03-01T08:59:07;62.37;;;38.97;;
35897;SDS011;21997;47.118;15.346;2023-03-01T09:01:33;67.87;;;42.57;;
35897;SDS011;21997;47.118;15.346;2023-03-01T09:03:58;20.47;;;15.07;;
35897;SDS011;21997;47.118;15.346;2023-03-01T09:06:24;31.43;;;20.17;;
35897;SDS011;21997;47.118;15.346;2023-03-01T09:08:50;29.70;;;19.83;;
35897;SDS011;21997;47.118;15.346;2023-03-01T09:11:19;16.87;;;12.33;;
35897;SDS011;21997;47.118;15.346;2023-03-01T09:13:46;14.03;;;10.67;;
35897;SDS011;21997;47.118;15.346;2023-03-01T09:16:13;19.37;;;12.97;;
35897;SDS011;21997;47.118;15.346;2023-03-01T09:18:40;15.07;;;10.93;;
35897;SDS011;21997;47.118;15.346;2023-03-01T09:23:39;16.20;;;11.03;;
35897;SDS011;21997;47.118;15.346;2023-03-01T09:26:06;15.90;;;11.30;;
35897;SDS011;21997;47.118;15.346;2023-03-01T09:28:34;17.53;;;13.13;;
35897;SDS011;21997;47.118;15.346;2023-03-01T09:31:02;29.13;;;21.47;;
35897;SDS011;21997;47.118;15.346;2023-03-01T09:33:29;21.30;;;16.87;;
35897;SDS011;21997;47.118;15.346;2023-03-01T09:35:56;16.00;;;11.40;;
35897;SDS011;21997;47.118;15.346;2023-03-01T09:38:22;12.67;;;9.87;;
35897;SDS011;21997;47.118;15.346;2023-03-01T09:40:47;14.27;;;10.83;;
35897;SDS011;21997;47.118;15.346;2023-03-01T09:46:05;14.00;;;10.27;;
35897;SDS011;21997;47.118;15.346;2023-03-01T09:48:37;16.10;;;11.33;;
35897;SDS011;21997;47.118;15.346;2023-03-01T09:51:09;17.30;;;10.57;;
35897;SDS011;21997;47.118;15.346;2023-03-01T09:53:39;16.57;;;11.00;;
35897;SDS011;21997;47.118;15.346;2023-03-01T09:56:05;13.77;;;10.73;;
35897;SDS011;21997;47.118;15.346;2023-03-01T10:07:20;14.63;;;10.30;;
35897;SDS011;21997;47.118;15.346;2023-03-01T10:09:51;15.77;;;10.90;;
35897;SDS011;21997;47.118;15.346;2023-03-01T10:12:18;17.57;;;11.23;;
35897;SDS011;21997;47.118;15.346;2023-03-01T10:14:59;14.47;;;10.27;;
35897;SDS011;21997;47.118;15.346;2023-03-01T10:17:33;19.97;;;11.90;;
35897;SDS011;21997;47.118;15.346;2023-03-01T10:20:17;17.00;;;11.20;;
35897;SDS011;21997;47.118;15.346;2023-03-01T10:22:49;18.40;;;11.10;;
35897;SDS011;21997;47.118;15.346;2023-03-01T10:26:06;14.67;;;10.87;;
35897;SDS011;21997;47.118;15.346;2023-03-01T10:30:43;78.27;;;18.20;;
35897;SDS011;21997;47.118;15.346;2023-03-01T10:33:14;16.93;;;11.97;;
35897;SDS011;21997;47.118;15.346;2023-03-01T10:35:42;17.30;;;10.57;;
35897;SDS011;21997;47.118;15.346;2023-03-01T10:38:08;14.93;;;10.47;;
35897;SDS011;21997;47.118;15.346;2023-03-01T10:43:24;15.33;;;12.03;;
35897;SDS011;21997;47.118;15.346;2023-03-01T10:45:54;17.50;;;11.07;;
35897;SDS011;21997;47.118;15.346;2023-03-01T10:48:21;16.20;;;11.67;;
35897;SDS011;21997;47.118;15.346;2023-03-01T10:51:12;14.83;;;10.73;;
35897;SDS011;21997;47.118;15.346;2023-03-01T10:53:38;15.37;;;11.27;;
35897;SDS011;21997;47.118;15.346;2023-03-01T10:56:10;17.47;;;11.70;;
35897;SDS011;21997;47.118;15.346;2023-03-01T10:58:41;16.27;;;10.73;;
35897;SDS011;21997;47.118;15.346;2023-03-01T11:03:54;14.20;;;9.73;;
35897;SDS011;21997;47.118;15.346;2023-03-01T11:06:38;14.43;;;10.27;;
35897;SDS011;21997;47.118;15.346;2023-03-01T11:09:14;12.33;;;10.23;;
35897;SDS011;21997;47.118;15.346;2023-03-01T11:11:45;15.07;;;10.03;;
35897;SDS011;21997;47.118;15.346;2023-03-01T11:14:27;16.83;;;10.83;;
35897;SDS011;21997;47.118;15.346;2023-03-01T11:19:25;16.30;;;12.23;;
35897;SDS011;21997;47.118;15.346;2023-03-01T11:21:53;17.37;;;11.10;;
35897;SDS011;21997;47.118;15.346;2023-03-01T11:24:29;16.43;;;11.13;;
35897;SDS011;21997;47.118;15.346;2023-03-01T11:26:57;15.57;;;10.37;;
35897;SDS011;21997;47.118;15.346;2023-03-01T11:29:41;16.33;;;11.47;;
35897;SDS011;21997;47.118;15.346;2023-03-01T11:32:11;16.23;;;10.63;;
35897;SDS011;21997;47.118;15.346;2023-03-01T11:35:01;17.23;;;10.17;;
35897;SDS011;21997;47.118;15.346;2023-03-01T11:37:34;16.10;;;10.80;;
35897;SDS011;21997;47.118;15.346;2023-03-01T11:40:17;12.87;;;10.70;;
35897;SDS011;21997;47.118;15.346;2023-03-01T11:51:05;18.90;;;10.77;;
35897;SDS011;21997;47.118;15.346;2023-03-01T11:53:39;17.70;;;10.97;;
35897;SDS011;21997;47.118;15.346;2023-03-01T12:07:18;14.87;;;10.30;;
35897;SDS011;21997;47.118;15.346;2023-03-01T12:17:41;35.47;;;12.27;;
35897;SDS011;21997;47.118;15.346;2023-03-01T12:31:16;15.33;;;11.10;;
35897;SDS011;21997;47.118;15.346;2023-03-01T12:37:47;16.73;;;10.97;;
35897;SDS011;21997;47.118;15.346;2023-03-01T12:44:47;15.43;;;10.90;;
35897;SDS011;21997;47.118;15.346;2023-03-01T12:50:03;15.87;;;10.17;;
35897;SDS011;21997;47.118;15.346;2023-03-01T12:52:39;18.87;;;11.00;;
35897;SDS011;21997;47.118;15.346;2023-03-01T12:55:09;17.53;;;12.07;;
35897;SDS011;21997;47.118;15.346;2023-03-01T13:03:51;17.97;;;10.77;;
35897;SDS011;21997;47.118;15.346;2023-03-01T13:06:35;17.20;;;11.00;;
35897;SDS011;21997;47.118;15.346;2023-03-01T13:09:14;14.47;;;10.23;;
35897;SDS011;21997;47.118;15.346;2023-03-01T13:11:44;16.23;;;10.87;;
35897;SDS011;21997;47.118;15.346;2023-03-01T13:16:50;15.77;;;10.47;;
35897;SDS011;21997;47.118;15.346;2023-03-01T13:19:23;18.17;;;11.30;;
35897;SDS011;21997;47.118;15.346;2023-03-01T13:21:51;16.97;;;11.27;;
35897;SDS011;21997;47.118;15.346;2023-03-01T13:24:29;16.97;;;11.13;;
35897;SDS011;21997;47.118;15.346;2023-03-01T13:29:46;14.97;;;10.60;;
35897;SDS011;21997;47.118;15.346;2023-03-01T13:32:19;15.93;;;10.00;;
35897;SDS011;21997;47.118;15.346;2023-03-01T13:35:03;15.20;;;10.63;;
35897;SDS011;21997;47.118;15.346;2023-03-01T13:37:48;14.80;;;10.50;;
35897;SDS011;21997;47.118;15.346;2023-03-01T13:42:49;36.73;;;11.70;;
35897;SDS011;21997;47.118;15.346;2023-03-01T13:47:49;18.33;;;10.00;;
35897;SDS011;21997;47.118;15.346;2023-03-01T13:50:18;17.73;;;10.63;;
35897;SDS011;21997;47.118;15.346;2023-03-01T13:52:48;16.67;;;9.47;;
35897;SDS011;21997;47.118;15.346;2023-03-01T13:55:21;15.23;;;10.50;;
35897;SDS011;21997;47.118;15.346;2023-03-01T13:57:54;14.23;;;9.80;;
35897;SDS011;21997;47.118;15.346;2023-03-01T14:00:55;14.53;;;9.10;;
35897;SDS011;21997;47.118;15.346;2023-03-01T14:03:20;14.23;;;9.73;;
35897;SDS011;21997;47.118;15.346;2023-03-01T14:08:34;17.30;;;10.27;;
35897;SDS011;21997;47.118;15.346;2023-03-01T14:19:54;15.73;;;9.70;;
35897;SDS011;21997;47.118;15.346;2023-03-01T14:22:22;18.27;;;10.80;;
35897;SDS011;21997;47.118;15.346;2023-03-01T14:24:52;18.50;;;9.73;;
35897;SDS011;21997;47.118;15.346;2023-03-01T14:27:20;14.40;;;9.57;;
35897;SDS011;21997;47.118;15.346;2023-03-01T14:29:54;13.90;;;9.53;;
35897;SDS011;21997;47.118;15.346;2023-03-01T14:32:22;15.40;;;9.77;;
35897;SDS011;21997;47.118;15.346;2023-03-01T14:34:50;12.30;;;9.17;;
35897;SDS011;21997;47.118;15.346;2023-03-01T14:39:47;14.77;;;9.60;;
35897;SDS011;21997;47.118;15.346;2023-03-01T14:42:14;12.47;;;9.43;;
35897;SDS011;21997;47.118;15.346;2023-03-01T14:44:41;13.60;;;9.57;;
35897;SDS011;21997;47.118;15.346;2023-03-01T14:47:12;13.57;;;9.10;;
35897;SDS011;21997;47.118;15.346;2023-03-01T14:49:40;12.90;;;9.07;;
35897;SDS011;21997;47.118;15.346;2023-03-01T14:52:07;14.30;;;9.30;;
35897;SDS011;21997;47.118;15.346;2023-03-01T14:54:41;13.13;;;8.43;;
35897;SDS011;21997;47.118;15.346;2023-03-01T14:57:42;19.40;;;9.40;;
35897;SDS011;21997;47.118;15.346;2023-03-01T15:00:00;13.13;;;8.33;;
35897;SDS011;21997;47.118;15.346;2023-03-01T15:02:30;16.13;;;8.63;;
35897;SDS011;21997;47.118;15.346;2023-03-01T15:04:57;14.43;;;8.03;;
35897;SDS011;21997;47.118;15.346;2023-03-01T15:07:26;19.97;;;9.33;;
35897;SDS011;21997;47.118;15.346;2023-03-01T15:09:57;11.73;;;8.60;;
35897;SDS011;21997;47.118;15.346;2023-03-01T15:12:36;11.53;;;8.30;;
35897;SDS011;21997;47.118;15.346;2023-03-01T15:15:26;12.43;;;8.07;;
35897;SDS011;21997;47.118;15.346;2023-03-01T15:17:58;17.63;;;7.70;;
35897;SDS011;21997;47.118;15.346;2023-03-01T15:20:25;12.10;;;7.73;;
35897;SDS011;21997;47.118;15.346;2023-03-01T15:22:52;11.50;;;8.03;;
35897;SDS011;21997;47.118;15.346;2023-03-01T15:25:19;12.37;;;8.27;;
35897;SDS011;21997;47.118;15.346;2023-03-01T15:27:47;13.70;;;8.57;;
35897;SDS011;21997;47.118;15.346;2023-03-01T15:30:17;18.13;;;8.23;;
35897;SDS011;21997;47.118;15.346;2023-03-01T15:32:46;11.83;;;8.37;;
35897;SDS011;21997;47.118;15.346;2023-03-01T15:38:23;14.03;;;9.10;;
35897;SDS011;21997;47.118;15.346;2023-03-01T15:40:54;13.53;;;9.87;;
35897;SDS011;21997;47.118;15.346;2023-03-01T15:43:40;15.43;;;10.00;;
35897;SDS011;21997;47.118;15.346;2023-03-01T15:46:31;19.80;;;12.93;;
35897;SDS011;21997;47.118;15.346;2023-03-01T15:49:03;14.27;;;9.73;;
35897;SDS011;21997;47.118;15.346;2023-03-01T15:51:35;13.67;;;8.33;;
35897;SDS011;21997;47.118;15.346;2023-03-01T15:54:06;14.70;;;7.80;;
35897;SDS011;21997;47.118;15.346;2023-03-01T15:56:34;13.53;;;7.73;;
35897;SDS011;21997;47.118;15.346;2023-03-01T15:59:00;14.07;;;8.23;;
35897;SDS011;21997;47.118;15.346;2023-03-01T16:01:27;12.57;;;7.87;;
35897;SDS011;21997;47.118;15.346;2023-03-01T16:03:52;14.60;;;8.60;;
35897;SDS011;21997;47.118;15.346;2023-03-01T16:06:19;13.57;;;8.70;;
35897;SDS011;21997;47.118;15.346;2023-03-01T16:08:44;13.07;;;8.50;;
35897;SDS011;21997;47.118;15.346;2023-03-01T16:11:20;16.13;;;9.77;;
35897;SDS011;21997;47.118;15.346;2023-03-01T16:13:46;13.23;;;8.10;;
35897;SDS011;21997;47.118;15.346;2023-03-01T16:16:12;13.40;;;7.87;;